Chillicothe, Illinois
Current Conditions -  °F | °C
As of 6:15 PM on Friday 19 Dec 2014 (Local Time) from KC75 Reporting Station
Overcast Overcast  
Wind Chill: 29°   Ceiling: 4900
Heat Index: 29°   Visibility: 10mi
Dew Point: 22°   Wind: 3mph
Humidity: 75%   Direction: 70°ENE
Pressure: 30.29"   Gusts: NA
Location:  40.92°N, 89.49°W
Report Text: KC75 200015Z AUTO 07003KT 10SM OVC049 M01/M05 A3029 RMK AO2 T10141053
Loading
Personal Weather Stations






























Interactive Weather Map New forecast layout! Learn more

10-Day Weather Forecast

Advertisements
Track Severe Weather on mobile